sensor_id;sensor_type;location;lat;lon;timestamp;P1;durP1;ratioP1;P2;durP2;ratioP2
4001;SDS011;2015;48.670;9.060;2023-02-08T00:01:45;17.77;;;13.00;;
4001;SDS011;2015;48.670;9.060;2023-02-08T00:04:17;12.93;;;11.33;;
4001;SDS011;2015;48.670;9.060;2023-02-08T00:06:49;15.30;;;10.93;;
4001;SDS011;2015;48.670;9.060;2023-02-08T00:09:21;17.20;;;12.20;;
4001;SDS011;2015;48.670;9.060;2023-02-08T00:11:53;13.80;;;11.87;;
4001;SDS011;2015;48.670;9.060;2023-02-08T00:14:25;12.43;;;10.97;;
4001;SDS011;2015;48.670;9.060;2023-02-08T00:16:56;18.00;;;12.23;;
4001;SDS011;2015;48.670;9.060;2023-02-08T00:19:28;16.77;;;11.23;;
4001;SDS011;2015;48.670;9.060;2023-02-08T00:22:00;19.60;;;14.50;;
4001;SDS011;2015;48.670;9.060;2023-02-08T00:24:32;15.10;;;12.00;;
4001;SDS011;2015;48.670;9.060;2023-02-08T00:27:03;14.37;;;11.90;;
4001;SDS011;2015;48.670;9.060;2023-02-08T00:29:35;15.60;;;12.23;;
4001;SDS011;2015;48.670;9.060;2023-02-08T00:32:09;15.73;;;13.87;;
4001;SDS011;2015;48.670;9.060;2023-02-08T00:34:41;12.03;;;10.60;;
4001;SDS011;2015;48.670;9.060;2023-02-08T00:37:13;13.60;;;10.50;;
4001;SDS011;2015;48.670;9.060;2023-02-08T00:39:45;11.90;;;9.87;;
4001;SDS011;2015;48.670;9.060;2023-02-08T00:42:17;17.93;;;12.90;;
4001;SDS011;2015;48.670;9.060;2023-02-08T00:44:49;14.73;;;10.53;;
4001;SDS011;2015;48.670;9.060;2023-02-08T00:47:21;12.60;;;10.77;;
4001;SDS011;2015;48.670;9.060;2023-02-08T00:49:53;18.70;;;12.90;;
4001;SDS011;2015;48.670;9.060;2023-02-08T00:52:28;12.30;;;10.20;;
4001;SDS011;2015;48.670;9.060;2023-02-08T00:55:00;14.93;;;10.57;;
4001;SDS011;2015;48.670;9.060;2023-02-08T00:57:33;21.53;;;10.67;;
4001;SDS011;2015;48.670;9.060;2023-02-08T01:00:05;13.33;;;9.93;;
4001;SDS011;2015;48.670;9.060;2023-02-08T01:02:39;13.73;;;10.50;;
4001;SDS011;2015;48.670;9.060;2023-02-08T01:05:12;15.97;;;11.20;;
4001;SDS011;2015;48.670;9.060;2023-02-08T01:07:43;16.27;;;10.70;;
4001;SDS011;2015;48.670;9.060;2023-02-08T01:10:15;14.13;;;10.93;;
4001;SDS011;2015;48.670;9.060;2023-02-08T01:12:47;14.83;;;11.50;;
4001;SDS011;2015;48.670;9.060;2023-02-08T01:15:19;16.33;;;11.10;;
4001;SDS011;2015;48.670;9.060;2023-02-08T01:17:53;19.47;;;11.27;;
4001;SDS011;2015;48.670;9.060;2023-02-08T01:20:25;15.87;;;11.20;;
4001;SDS011;2015;48.670;9.060;2023-02-08T01:22:57;11.00;;;9.87;;
4001;SDS011;2015;48.670;9.060;2023-02-08T01:25:29;15.73;;;10.20;;
4001;SDS011;2015;48.670;9.060;2023-02-08T01:28:01;13.10;;;10.70;;
4001;SDS011;2015;48.670;9.060;2023-02-08T01:30:32;13.63;;;8.90;;
4001;SDS011;2015;48.670;9.060;2023-02-08T01:33:04;13.47;;;9.37;;
4001;SDS011;2015;48.670;9.060;2023-02-08T01:35:36;17.70;;;10.73;;
4001;SDS011;2015;48.670;9.060;2023-02-08T01:38:08;11.97;;;10.33;;
4001;SDS011;2015;48.670;9.060;2023-02-08T01:40:39;16.83;;;11.20;;
4001;SDS011;2015;48.670;9.060;2023-02-08T01:43:19;11.97;;;9.60;;
4001;SDS011;2015;48.670;9.060;2023-02-08T01:45:54;16.17;;;10.80;;
4001;SDS011;2015;48.670;9.060;2023-02-08T01:48:31;12.53;;;9.40;;
4001;SDS011;2015;48.670;9.060;2023-02-08T01:51:07;17.40;;;11.05;;
4001;SDS011;2015;48.670;9.060;2023-02-08T01:53:45;18.27;;;11.40;;
4001;SDS011;2015;48.670;9.060;2023-02-08T01:56:20;11.83;;;10.30;;
4001;SDS011;2015;48.670;9.060;2023-02-08T01:59:02;10.27;;;8.50;;
4001;SDS011;2015;48.670;9.060;2023-02-08T02:01:38;13.90;;;9.03;;
4001;SDS011;2015;48.670;9.060;2023-02-08T02:04:11;13.67;;;10.10;;
4001;SDS011;2015;48.670;9.060;2023-02-08T02:06:45;14.20;;;8.97;;
4001;SDS011;2015;48.670;9.060;2023-02-08T02:12:06;16.53;;;10.10;;
4001;SDS011;2015;48.670;9.060;2023-02-08T02:14:39;10.50;;;8.20;;
4001;SDS011;2015;48.670;9.060;2023-02-08T02:17:12;22.00;;;10.20;;
4001;SDS011;2015;48.670;9.060;2023-02-08T02:20:00;11.83;;;9.23;;
4001;SDS011;2015;48.670;9.060;2023-02-08T02:23:10;13.83;;;10.70;;
4001;SDS011;2015;48.670;9.060;2023-02-08T02:26:26;15.10;;;11.20;;
4001;SDS011;2015;48.670;9.060;2023-02-08T02:37:42;17.40;;;10.07;;
4001;SDS011;2015;48.670;9.060;2023-02-08T02:46:27;15.37;;;10.97;;
4001;SDS011;2015;48.670;9.060;2023-02-08T02:49:11;15.97;;;11.33;;
4001;SDS011;2015;48.670;9.060;2023-02-08T02:52:04;17.80;;;11.50;;
4001;SDS011;2015;48.670;9.060;2023-02-08T02:54:50;11.50;;;8.60;;
4001;SDS011;2015;48.670;9.060;2023-02-08T02:57:29;15.50;;;9.33;;
4001;SDS011;2015;48.670;9.060;2023-02-08T03:00:10;14.63;;;10.07;;
4001;SDS011;2015;48.670;9.060;2023-02-08T03:02:55;10.20;;;9.17;;
4001;SDS011;2015;48.670;9.060;2023-02-08T03:05:30;16.67;;;10.60;;
4001;SDS011;2015;48.670;9.060;2023-02-08T03:08:21;13.90;;;12.43;;
4001;SDS011;2015;48.670;9.060;2023-02-08T03:11:17;15.90;;;11.07;;
4001;SDS011;2015;48.670;9.060;2023-02-08T03:19:32;19.27;;;9.13;;
4001;SDS011;2015;48.670;9.060;2023-02-08T03:22:39;22.33;;;9.63;;
4001;SDS011;2015;48.670;9.060;2023-02-08T03:25:22;12.30;;;10.03;;
4001;SDS011;2015;48.670;9.060;2023-02-08T03:28:00;14.40;;;10.07;;
4001;SDS011;2015;48.670;9.060;2023-02-08T03:30:46;14.80;;;10.80;;
4001;SDS011;2015;48.670;9.060;2023-02-08T03:34:10;10.37;;;9.23;;
4001;SDS011;2015;48.670;9.060;2023-02-08T03:36:49;14.57;;;11.00;;
4001;SDS011;2015;48.670;9.060;2023-02-08T03:39:28;17.17;;;11.52;;
4001;SDS011;2015;48.670;9.060;2023-02-08T03:42:03;14.73;;;11.30;;
4001;SDS011;2015;48.670;9.060;2023-02-08T03:44:43;18.97;;;10.90;;
4001;SDS011;2015;48.670;9.060;2023-02-08T03:47:38;11.80;;;8.90;;
4001;SDS011;2015;48.670;9.060;2023-02-08T03:50:13;18.30;;;11.33;;
4001;SDS011;2015;48.670;9.060;2023-02-08T03:52:47;15.27;;;10.30;;
4001;SDS011;2015;48.670;9.060;2023-02-08T03:55:26;13.37;;;9.27;;
4001;SDS011;2015;48.670;9.060;2023-02-08T03:58:17;16.17;;;10.20;;
4001;SDS011;2015;48.670;9.060;2023-02-08T04:01:31;16.90;;;11.13;;
4001;SDS011;2015;48.670;9.060;2023-02-08T04:04:03;14.23;;;11.27;;
4001;SDS011;2015;48.670;9.060;2023-02-08T04:06:35;17.17;;;11.43;;
4001;SDS011;2015;48.670;9.060;2023-02-08T04:09:07;18.17;;;10.63;;
4001;SDS011;2015;48.670;9.060;2023-02-08T04:11:39;16.27;;;10.70;;
4001;SDS011;2015;48.670;9.060;2023-02-08T04:14:10;15.53;;;9.83;;
4001;SDS011;2015;48.670;9.060;2023-02-08T04:16:42;15.70;;;10.30;;
4001;SDS011;2015;48.670;9.060;2023-02-08T04:19:14;13.87;;;10.10;;
4001;SDS011;2015;48.670;9.060;2023-02-08T04:21:46;19.70;;;11.17;;
4001;SDS011;2015;48.670;9.060;2023-02-08T04:24:17;13.60;;;11.47;;
4001;SDS011;2015;48.670;9.060;2023-02-08T04:26:50;17.57;;;10.83;;
4001;SDS011;2015;48.670;9.060;2023-02-08T04:29:22;14.10;;;10.20;;
4001;SDS011;2015;48.670;9.060;2023-02-08T04:31:54;13.40;;;10.90;;
4001;SDS011;2015;48.670;9.060;2023-02-08T04:34:26;20.20;;;9.70;;
4001;SDS011;2015;48.670;9.060;2023-02-08T04:36:58;13.50;;;11.57;;
4001;SDS011;2015;48.670;9.060;2023-02-08T04:39:29;10.70;;;9.63;;
4001;SDS011;2015;48.670;9.060;2023-02-08T04:42:01;13.53;;;10.67;;
4001;SDS011;2015;48.670;9.060;2023-02-08T04:44:33;13.60;;;10.07;;
4001;SDS011;2015;48.670;9.060;2023-02-08T04:47:05;16.27;;;11.00;;
4001;SDS011;2015;48.670;9.060;2023-02-08T04:49:37;16.77;;;9.80;;
4001;SDS011;2015;48.670;9.060;2023-02-08T04:52:09;11.83;;;9.50;;
4001;SDS011;2015;48.670;9.060;2023-02-08T04:54:40;16.80;;;11.45;;
4001;SDS011;2015;48.670;9.060;2023-02-08T04:57:12;13.67;;;9.60;;
4001;SDS011;2015;48.670;9.060;2023-02-08T04:59:45;18.33;;;11.20;;
4001;SDS011;2015;48.670;9.060;2023-02-08T05:02:16;13.73;;;10.97;;
4001;SDS011;2015;48.670;9.060;2023-02-08T05:04:48;20.77;;;10.67;;
4001;SDS011;2015;48.670;9.060;2023-02-08T05:07:20;14.40;;;9.50;;
4001;SDS011;2015;48.670;9.060;2023-02-08T05:09:53;12.97;;;10.80;;
4001;SDS011;2015;48.670;9.060;2023-02-08T05:12:30;19.80;;;10.60;;
4001;SDS011;2015;48.670;9.060;2023-02-08T05:15:02;13.03;;;9.97;;
4001;SDS011;2015;48.670;9.060;2023-02-08T05:17:34;12.63;;;10.67;;
4001;SDS011;2015;48.670;9.060;2023-02-08T05:20:07;20.80;;;10.97;;
4001;SDS011;2015;48.670;9.060;2023-02-08T05:22:39;17.20;;;11.70;;
4001;SDS011;2015;48.670;9.060;2023-02-08T05:25:11;14.50;;;9.57;;
4001;SDS011;2015;48.670;9.060;2023-02-08T05:27:43;15.23;;;10.00;;
4001;SDS011;2015;48.670;9.060;2023-02-08T05:30:15;14.40;;;9.73;;
4001;SDS011;2015;48.670;9.060;2023-02-08T05:32:47;13.70;;;10.80;;
4001;SDS011;2015;48.670;9.060;2023-02-08T05:35:18;14.33;;;9.30;;
4001;SDS011;2015;48.670;9.060;2023-02-08T05:37:52;14.97;;;10.50;;
4001;SDS011;2015;48.670;9.060;2023-02-08T05:40:24;13.60;;;9.60;;
4001;SDS011;2015;48.670;9.060;2023-02-08T05:42:56;13.23;;;9.23;;
4001;SDS011;2015;48.670;9.060;2023-02-08T05:45:27;14.27;;;9.50;;
4001;SDS011;2015;48.670;9.060;2023-02-08T05:47:59;15.37;;;9.70;;
4001;SDS011;2015;48.670;9.060;2023-02-08T05:50:31;15.30;;;9.87;;
4001;SDS011;2015;48.670;9.060;2023-02-08T05:53:03;16.73;;;11.33;;
4001;SDS011;2015;48.670;9.060;2023-02-08T05:55:35;10.60;;;9.10;;
4001;SDS011;2015;48.670;9.060;2023-02-08T05:58:06;18.70;;;10.60;;
4001;SDS011;2015;48.670;9.060;2023-02-08T06:00:38;15.90;;;10.60;;
4001;SDS011;2015;48.670;9.060;2023-02-08T06:03:11;13.30;;;9.30;;
4001;SDS011;2015;48.670;9.060;2023-02-08T06:05:43;15.53;;;10.70;;
4001;SDS011;2015;48.670;9.060;2023-02-08T06:08:14;14.33;;;10.70;;
4001;SDS011;2015;48.670;9.060;2023-02-08T06:10:47;14.27;;;10.00;;
4001;SDS011;2015;48.670;9.060;2023-02-08T06:13:20;18.33;;;11.20;;
4001;SDS011;2015;48.670;9.060;2023-02-08T06:15:51;18.23;;;10.30;;
4001;SDS011;2015;48.670;9.060;2023-02-08T06:18:23;14.83;;;10.20;;
4001;SDS011;2015;48.670;9.060;2023-02-08T06:20:55;15.87;;;11.33;;
4001;SDS011;2015;48.670;9.060;2023-02-08T06:23:27;13.47;;;9.70;;
4001;SDS011;2015;48.670;9.060;2023-02-08T06:25:58;14.87;;;9.37;;
4001;SDS011;2015;48.670;9.060;2023-02-08T06:28:30;16.63;;;12.27;;
4001;SDS011;2015;48.670;9.060;2023-02-08T06:31:02;11.63;;;10.43;;
4001;SDS011;2015;48.670;9.060;2023-02-08T06:33:34;12.67;;;11.37;;
4001;SDS011;2015;48.670;9.060;2023-02-08T06:36:06;17.40;;;10.30;;
4001;SDS011;2015;48.670;9.060;2023-02-08T06:38:38;18.10;;;10.93;;
4001;SDS011;2015;48.670;9.060;2023-02-08T06:41:09;20.00;;;11.30;;
4001;SDS011;2015;48.670;9.060;2023-02-08T06:43:41;15.07;;;10.37;;
4001;SDS011;2015;48.670;9.060;2023-02-08T06:46:13;15.03;;;10.33;;
4001;SDS011;2015;48.670;9.060;2023-02-08T06:48:45;23.33;;;12.07;;
4001;SDS011;2015;48.670;9.060;2023-02-08T06:51:17;15.10;;;10.43;;
4001;SDS011;2015;48.670;9.060;2023-02-08T06:53:49;17.57;;;12.87;;
4001;SDS011;2015;48.670;9.060;2023-02-08T06:56:21;15.60;;;11.60;;
4001;SDS011;2015;48.670;9.060;2023-02-08T06:58:52;15.53;;;10.80;;
4001;SDS011;2015;48.670;9.060;2023-02-08T07:01:24;17.27;;;11.57;;
4001;SDS011;2015;48.670;9.060;2023-02-08T07:03:56;19.40;;;14.07;;
4001;SDS011;2015;48.670;9.060;2023-02-08T07:06:27;13.30;;;10.90;;
4001;SDS011;2015;48.670;9.060;2023-02-08T07:08:59;18.60;;;11.43;;
4001;SDS011;2015;48.670;9.060;2023-02-08T07:11:32;15.77;;;11.40;;
4001;SDS011;2015;48.670;9.060;2023-02-08T07:14:04;15.80;;;12.73;;
4001;SDS011;2015;48.670;9.060;2023-02-08T07:16:36;18.85;;;11.27;;
4001;SDS011;2015;48.670;9.060;2023-02-08T07:19:08;16.67;;;11.80;;
4001;SDS011;2015;48.670;9.060;2023-02-08T07:21:40;20.43;;;11.40;;
4001;SDS011;2015;48.670;9.060;2023-02-08T07:24:11;15.60;;;9.70;;
4001;SDS011;2015;48.670;9.060;2023-02-08T07:26:43;18.37;;;10.43;;
4001;SDS011;2015;48.670;9.060;2023-02-08T07:29:15;16.87;;;11.73;;
4001;SDS011;2015;48.670;9.060;2023-02-08T07:31:47;15.27;;;10.07;;
4001;SDS011;2015;48.670;9.060;2023-02-08T07:34:18;21.73;;;10.60;;
4001;SDS011;2015;48.670;9.060;2023-02-08T07:36:52;14.07;;;10.77;;
4001;SDS011;2015;48.670;9.060;2023-02-08T07:39:25;14.87;;;11.00;;
4001;SDS011;2015;48.670;9.060;2023-02-08T07:41:57;16.60;;;11.50;;
4001;SDS011;2015;48.670;9.060;2023-02-08T07:44:29;12.47;;;10.50;;
4001;SDS011;2015;48.670;9.060;2023-02-08T07:47:01;15.73;;;10.43;;
4001;SDS011;2015;48.670;9.060;2023-02-08T07:49:33;18.13;;;11.67;;
4001;SDS011;2015;48.670;9.060;2023-02-08T07:52:05;15.20;;;11.10;;
4001;SDS011;2015;48.670;9.060;2023-02-08T07:54:37;16.03;;;11.37;;
4001;SDS011;2015;48.670;9.060;2023-02-08T07:57:09;16.87;;;12.07;;
4001;SDS011;2015;48.670;9.060;2023-02-08T07:59:41;15.73;;;11.73;;
4001;SDS011;2015;48.670;9.060;2023-02-08T08:02:13;15.03;;;12.30;;
4001;SDS011;2015;48.670;9.060;2023-02-08T08:04:46;19.60;;;11.70;;
4001;SDS011;2015;48.670;9.060;2023-02-08T08:07:18;18.37;;;11.40;;
4001;SDS011;2015;48.670;9.060;2023-02-08T08:09:50;24.07;;;13.43;;
4001;SDS011;2015;48.670;9.060;2023-02-08T08:12:22;17.20;;;12.47;;
4001;SDS011;2015;48.670;9.060;2023-02-08T08:14:54;21.07;;;12.60;;
4001;SDS011;2015;48.670;9.060;2023-02-08T08:17:26;16.70;;;10.90;;
4001;SDS011;2015;48.670;9.060;2023-02-08T08:20:00;17.97;;;10.47;;
4001;SDS011;2015;48.670;9.060;2023-02-08T08:22:32;20.50;;;12.83;;
4001;SDS011;2015;48.670;9.060;2023-02-08T08:25:03;19.57;;;12.93;;
4001;SDS011;2015;48.670;9.060;2023-02-08T08:27:35;12.20;;;9.97;;
4001;SDS011;2015;48.670;9.060;2023-02-08T08:30:08;17.80;;;12.83;;
4001;SDS011;2015;48.670;9.060;2023-02-08T08:32:42;20.75;;;13.35;;
4001;SDS011;2015;48.670;9.060;2023-02-08T08:35:14;19.33;;;11.77;;
4001;SDS011;2015;48.670;9.060;2023-02-08T08:37:46;15.70;;;11.23;;
4001;SDS011;2015;48.670;9.060;2023-02-08T08:40:18;14.67;;;10.43;;
4001;SDS011;2015;48.670;9.060;2023-02-08T08:42:50;18.00;;;10.23;;
4001;SDS011;2015;48.670;9.060;2023-02-08T08:45:22;24.33;;;11.20;;
4001;SDS011;2015;48.670;9.060;2023-02-08T08:47:54;20.00;;;10.53;;
4001;SDS011;2015;48.670;9.060;2023-02-08T08:50:26;18.53;;;12.07;;
4001;SDS011;2015;48.670;9.060;2023-02-08T08:52:57;15.27;;;10.37;;
4001;SDS011;2015;48.670;9.060;2023-02-08T08:55:29;19.20;;;11.50;;
4001;SDS011;2015;48.670;9.060;2023-02-08T08:58:01;17.87;;;12.00;;
4001;SDS011;2015;48.670;9.060;2023-02-08T09:00:33;20.03;;;12.50;;
4001;SDS011;2015;48.670;9.060;2023-02-08T09:03:04;20.43;;;11.63;;
4001;SDS011;2015;48.670;9.060;2023-02-08T09:05:36;17.40;;;11.80;;
4001;SDS011;2015;48.670;9.060;2023-02-08T09:08:08;20.10;;;11.83;;
4001;SDS011;2015;48.670;9.060;2023-02-08T09:10:40;24.03;;;12.20;;
4001;SDS011;2015;48.670;9.060;2023-02-08T09:13:12;16.03;;;11.73;;
4001;SDS011;2015;48.670;9.060;2023-02-08T09:15:49;22.80;;;11.57;;
4001;SDS011;2015;48.670;9.060;2023-02-08T09:18:21;21.57;;;10.43;;
4001;SDS011;2015;48.670;9.060;2023-02-08T09:20:52;18.03;;;11.73;;
4001;SDS011;2015;48.670;9.060;2023-02-08T09:23:24;21.10;;;10.70;;
4001;SDS011;2015;48.670;9.060;2023-02-08T09:25:56;13.57;;;10.73;;
4001;SDS011;2015;48.670;9.060;2023-02-08T09:28:28;23.40;;;12.40;;
4001;SDS011;2015;48.670;9.060;2023-02-08T09:31:06;17.50;;;11.10;;
4001;SDS011;2015;48.670;9.060;2023-02-08T09:33:44;18.20;;;11.17;;
4001;SDS011;2015;48.670;9.060;2023-02-08T09:36:16;17.30;;;11.50;;
4001;SDS011;2015;48.670;9.060;2023-02-08T09:38:49;18.10;;;12.30;;
4001;SDS011;2015;48.670;9.060;2023-02-08T09:50:30;18.60;;;11.97;;
4001;SDS011;2015;48.670;9.060;2023-02-08T09:55:22;23.77;;;13.20;;
4001;SDS011;2015;48.670;9.060;2023-02-08T09:58:01;19.90;;;13.83;;
4001;SDS011;2015;48.670;9.060;2023-02-08T10:00:56;15.30;;;11.57;;
4001;SDS011;2015;48.670;9.060;2023-02-08T10:03:30;18.00;;;12.83;;
4001;SDS011;2015;48.670;9.060;2023-02-08T10:06:08;19.60;;;12.27;;
4001;SDS011;2015;48.670;9.060;2023-02-08T10:08:49;17.13;;;11.53;;
4001;SDS011;2015;48.670;9.060;2023-02-08T10:28:40;17.63;;;12.77;;
4001;SDS011;2015;48.670;9.060;2023-02-08T10:34:36;18.17;;;13.03;;
4001;SDS011;2015;48.670;9.060;2023-02-08T10:37:16;17.93;;;12.87;;
4001;SDS011;2015;48.670;9.060;2023-02-08T10:39:50;19.00;;;12.80;;
4001;SDS011;2015;48.670;9.060;2023-02-08T10:42:22;21.60;;;12.47;;
4001;SDS011;2015;48.670;9.060;2023-02-08T10:47:55;24.10;;;13.00;;
4001;SDS011;2015;48.670;9.060;2023-02-08T10:50:33;17.37;;;13.10;;
4001;SDS011;2015;48.670;9.060;2023-02-08T10:53:14;17.00;;;11.67;;
4001;SDS011;2015;48.670;9.060;2023-02-08T10:55:47;15.33;;;12.17;;
4001;SDS011;2015;48.670;9.060;2023-02-08T10:58:21;15.80;;;13.50;;
4001;SDS011;2015;48.670;9.060;2023-02-08T11:00:56;17.00;;;11.80;;
4001;SDS011;2015;48.670;9.060;2023-02-08T11:03:28;21.07;;;11.57;;
4001;SDS011;2015;48.670;9.060;2023-02-08T11:06:00;15.73;;;10.30;;
4001;SDS011;2015;48.670;9.060;2023-02-08T11:08:33;17.57;;;11.30;;
4001;SDS011;2015;48.670;9.060;2023-02-08T11:11:25;15.47;;;11.50;;
4001;SDS011;2015;48.670;9.060;2023-02-08T11:14:07;12.33;;;9.70;;
4001;SDS011;2015;48.670;9.060;2023-02-08T11:16:49;17.90;;;11.23;;
4001;SDS011;2015;48.670;9.060;2023-02-08T11:22:05;14.80;;;10.07;;
4001;SDS011;2015;48.670;9.060;2023-02-08T11:24:38;14.93;;;10.70;;
4001;SDS011;2015;48.670;9.060;2023-02-08T11:30:10;12.43;;;9.57;;
4001;SDS011;2015;48.670;9.060;2023-02-08T11:35:54;13.27;;;10.03;;
4001;SDS011;2015;48.670;9.060;2023-02-08T11:38:31;11.47;;;9.60;;
4001;SDS011;2015;48.670;9.060;2023-02-08T11:41:12;16.97;;;9.83;;
4001;SDS011;2015;48.670;9.060;2023-02-08T11:43:56;10.60;;;9.50;;
4001;SDS011;2015;48.670;9.060;2023-02-08T11:46:33;16.07;;;9.90;;
4001;SDS011;2015;48.670;9.060;2023-02-08T11:49:12;12.85;;;9.13;;
4001;SDS011;2015;48.670;9.060;2023-02-08T11:51:53;15.90;;;10.00;;
4001;SDS011;2015;48.670;9.060;2023-02-08T11:57:52;12.90;;;10.13;;
4001;SDS011;2015;48.670;9.060;2023-02-08T12:00:31;12.63;;;8.90;;
4001;SDS011;2015;48.670;9.060;2023-02-08T12:03:06;17.93;;;9.73;;
4001;SDS011;2015;48.670;9.060;2023-02-08T12:11:41;10.33;;;8.13;;
4001;SDS011;2015;48.670;9.060;2023-02-08T12:14:24;16.80;;;9.90;;
4001;SDS011;2015;48.670;9.060;2023-02-08T12:17:51;14.93;;;9.47;;
4001;SDS011;2015;48.670;9.060;2023-02-08T12:28:38;9.73;;;7.93;;
4001;SDS011;2015;48.670;9.060;2023-02-08T12:37:04;10.23;;;7.03;;
4001;SDS011;2015;48.670;9.060;2023-02-08T12:45:58;13.07;;;7.67;;
4001;SDS011;2015;48.670;9.060;2023-02-08T12:53:58;7.90;;;7.13;;
4001;SDS011;2015;48.670;9.060;2023-02-08T12:56:39;12.17;;;6.63;;
4001;SDS011;2015;48.670;9.060;2023-02-08T13:02:22;11.70;;;6.63;;
4001;SDS011;2015;48.670;9.060;2023-02-08T13:05:01;7.00;;;6.37;;
4001;SDS011;2015;48.670;9.060;2023-02-08T13:07:40;9.97;;;7.40;;
4001;SDS011;2015;48.670;9.060;2023-02-08T13:10:19;12.27;;;6.67;;
4001;SDS011;2015;48.670;9.060;2023-02-08T13:15:47;9.27;;;6.93;;
4001;SDS011;2015;48.670;9.060;2023-02-08T13:18:21;7.43;;;4.97;;
4001;SDS011;2015;48.670;9.060;2023-02-08T13:21:05;5.67;;;5.10;;
4001;SDS011;2015;48.670;9.060;2023-02-08T13:23:46;7.27;;;5.83;;
4001;SDS011;2015;48.670;9.060;2023-02-08T13:26:24;7.90;;;6.53;;
4001;SDS011;2015;48.670;9.060;2023-02-08T13:29:03;6.73;;;6.03;;
4001;SDS011;2015;48.670;9.060;2023-02-08T13:31:41;8.87;;;6.80;;
4001;SDS011;2015;48.670;9.060;2023-02-08T13:36:56;7.33;;;6.17;;
4001;SDS011;2015;48.670;9.060;2023-02-08T13:42:56;8.80;;;6.37;;
4001;SDS011;2015;48.670;9.060;2023-02-08T13:45:24;6.03;;;4.83;;
4001;SDS011;2015;48.670;9.060;2023-02-08T13:47:59;10.17;;;5.93;;
4001;SDS011;2015;48.670;9.060;2023-02-08T13:53:05;10.00;;;7.13;;
4001;SDS011;2015;48.670;9.060;2023-02-08T14:01:22;10.50;;;7.30;;
4001;SDS011;2015;48.670;9.060;2023-02-08T14:12:11;11.13;;;7.17;;
4001;SDS011;2015;48.670;9.060;2023-02-08T14:17:47;11.63;;;8.00;;
4001;SDS011;2015;48.670;9.060;2023-02-08T14:23:04;8.50;;;7.37;;
4001;SDS011;2015;48.670;9.060;2023-02-08T14:25:51;11.43;;;8.53;;
4001;SDS011;2015;48.670;9.060;2023-02-08T14:28:33;11.57;;;9.30;;
4001;SDS011;2015;48.670;9.060;2023-02-08T14:31:09;8.40;;;7.33;;
4001;SDS011;2015;48.670;9.060;2023-02-08T14:33:48;15.07;;;9.40;;
4001;SDS011;2015;48.670;9.060;2023-02-08T14:42:05;14.03;;;10.03;;
4001;SDS011;2015;48.670;9.060;2023-02-08T14:53:00;15.50;;;9.95;;
4001;SDS011;2015;48.670;9.060;2023-02-08T14:58:38;17.70;;;10.57;;
4001;SDS011;2015;48.670;9.060;2023-02-08T15:01:13;14.77;;;11.13;;
4001;SDS011;2015;48.670;9.060;2023-02-08T15:03:49;15.63;;;9.63;;
4001;SDS011;2015;48.670;9.060;2023-02-08T15:09:12;17.97;;;11.17;;
4001;SDS011;2015;48.670;9.060;2023-02-08T15:12:03;17.90;;;11.37;;
4001;SDS011;2015;48.670;9.060;2023-02-08T15:14:38;22.00;;;12.70;;
4001;SDS011;2015;48.670;9.060;2023-02-08T15:17:18;15.43;;;11.70;;
4001;SDS011;2015;48.670;9.060;2023-02-08T15:19:56;15.30;;;10.80;;
4001;SDS011;2015;48.670;9.060;2023-02-08T15:22:31;18.00;;;13.27;;
4001;SDS011;2015;48.670;9.060;2023-02-08T15:25:26;13.83;;;10.13;;
4001;SDS011;2015;48.670;9.060;2023-02-08T15:28:15;20.13;;;11.60;;
4001;SDS011;2015;48.670;9.060;2023-02-08T15:31:08;17.87;;;12.50;;
4001;SDS011;2015;48.670;9.060;2023-02-08T15:33:46;21.73;;;11.57;;
4001;SDS011;2015;48.670;9.060;2023-02-08T15:36:25;14.60;;;10.63;;
4001;SDS011;2015;48.670;9.060;2023-02-08T15:39:08;16.07;;;11.47;;
4001;SDS011;2015;48.670;9.060;2023-02-08T15:41:47;14.57;;;10.33;;
4001;SDS011;2015;48.670;9.060;2023-02-08T15:44:26;24.73;;;11.07;;
4001;SDS011;2015;48.670;9.060;2023-02-08T15:47:08;13.43;;;10.97;;
4001;SDS011;2015;48.670;9.060;2023-02-08T15:49:48;18.03;;;12.13;;
4001;SDS011;2015;48.670;9.060;2023-02-08T15:52:24;23.63;;;13.40;;
4001;SDS011;2015;48.670;9.060;2023-02-08T15:54:59;17.70;;;12.27;;
4001;SDS011;2015;48.670;9.060;2023-02-08T15:57:44;18.70;;;12.90;;
4001;SDS011;2015;48.670;9.060;2023-02-08T16:00:30;19.73;;;12.47;;
4001;SDS011;2015;48.670;9.060;2023-02-08T16:03:04;17.63;;;12.47;;
4001;SDS011;2015;48.670;9.060;2023-02-08T16:05:39;19.47;;;11.00;;
4001;SDS011;2015;48.670;9.060;2023-02-08T16:08:13;19.30;;;12.63;;
4001;SDS011;2015;48.670;9.060;2023-02-08T16:10:55;21.77;;;12.90;;
4001;SDS011;2015;48.670;9.060;2023-02-08T16:13:38;22.33;;;13.20;;
4001;SDS011;2015;48.670;9.060;2023-02-08T16:16:35;20.80;;;14.03;;
4001;SDS011;2015;48.670;9.060;2023-02-08T16:21:52;18.70;;;13.20;;
4001;SDS011;2015;48.670;9.060;2023-02-08T16:24:25;21.77;;;12.57;;
4001;SDS011;2015;48.670;9.060;2023-02-08T16:26:59;18.53;;;13.17;;
4001;SDS011;2015;48.670;9.060;2023-02-08T16:29:35;15.33;;;12.70;;
4001;SDS011;2015;48.670;9.060;2023-02-08T16:34:58;22.50;;;15.03;;
4001;SDS011;2015;48.670;9.060;2023-02-08T16:37:40;21.57;;;14.87;;
4001;SDS011;2015;48.670;9.060;2023-02-08T16:43:21;25.85;;;16.25;;
4001;SDS011;2015;48.670;9.060;2023-02-08T16:46:30;27.67;;;15.50;;
4001;SDS011;2015;48.670;9.060;2023-02-08T16:48:56;27.50;;;14.97;;
4001;SDS011;2015;48.670;9.060;2023-02-08T16:51:29;27.37;;;14.47;;
4001;SDS011;2015;48.670;9.060;2023-02-08T16:54:03;23.50;;;15.20;;
4001;SDS011;2015;48.670;9.060;2023-02-08T16:56:37;20.80;;;14.50;;
4001;SDS011;2015;48.670;9.060;2023-02-08T16:59:12;31.10;;;16.00;;
4001;SDS011;2015;48.670;9.060;2023-02-08T17:01:44;20.20;;;13.90;;
4001;SDS011;2015;48.670;9.060;2023-02-08T17:04:18;25.30;;;14.53;;
4001;SDS011;2015;48.670;9.060;2023-02-08T17:06:49;25.90;;;16.10;;
4001;SDS011;2015;48.670;9.060;2023-02-08T17:09:22;19.07;;;15.97;;
4001;SDS011;2015;48.670;9.060;2023-02-08T17:11:53;24.60;;;15.40;;
4001;SDS011;2015;48.670;9.060;2023-02-08T17:14:25;26.20;;;16.60;;
4001;SDS011;2015;48.670;9.060;2023-02-08T17:16:57;23.27;;;14.63;;
4001;SDS011;2015;48.670;9.060;2023-02-08T17:19:29;25.13;;;13.97;;
4001;SDS011;2015;48.670;9.060;2023-02-08T17:22:00;26.70;;;16.27;;
4001;SDS011;2015;48.670;9.060;2023-02-08T17:24:32;29.45;;;17.98;;
4001;SDS011;2015;48.670;9.060;2023-02-08T17:27:04;25.77;;;16.40;;
4001;SDS011;2015;48.670;9.060;2023-02-08T17:29:36;30.17;;;18.80;;
4001;SDS011;2015;48.670;9.060;2023-02-08T17:32:08;27.50;;;16.10;;
4001;SDS011;2015;48.670;9.060;2023-02-08T17:34:40;28.42;;;17.08;;
4001;SDS011;2015;48.670;9.060;2023-02-08T17:37:11;21.90;;;14.67;;
4001;SDS011;2015;48.670;9.060;2023-02-08T17:39:44;25.67;;;16.17;;
4001;SDS011;2015;48.670;9.060;2023-02-08T17:42:15;29.07;;;17.50;;
4001;SDS011;2015;48.670;9.060;2023-02-08T17:44:48;24.10;;;15.37;;
4001;SDS011;2015;48.670;9.060;2023-02-08T17:47:20;23.23;;;16.07;;
4001;SDS011;2015;48.670;9.060;2023-02-08T17:49:51;22.70;;;16.40;;
4001;SDS011;2015;48.670;9.060;2023-02-08T17:52:23;24.53;;;16.40;;
4001;SDS011;2015;48.670;9.060;2023-02-08T17:54:55;41.53;;;16.13;;
4001;SDS011;2015;48.670;9.060;2023-02-08T17:57:29;30.17;;;18.20;;
4001;SDS011;2015;48.670;9.060;2023-02-08T18:00:03;26.27;;;17.83;;
4001;SDS011;2015;48.670;9.060;2023-02-08T18:02:49;32.60;;;17.97;;
4001;SDS011;2015;48.670;9.060;2023-02-08T18:05:23;30.40;;;17.03;;
4001;SDS011;2015;48.670;9.060;2023-02-08T18:07:57;29.90;;;17.67;;
4001;SDS011;2015;48.670;9.060;2023-02-08T18:10:29;28.43;;;19.17;;
4001;SDS011;2015;48.670;9.060;2023-02-08T18:13:01;26.97;;;18.60;;
4001;SDS011;2015;48.670;9.060;2023-02-08T18:15:32;30.83;;;19.77;;
4001;SDS011;2015;48.670;9.060;2023-02-08T18:18:04;36.20;;;20.53;;
4001;SDS011;2015;48.670;9.060;2023-02-08T18:20:36;29.73;;;21.07;;
4001;SDS011;2015;48.670;9.060;2023-02-08T18:23:12;34.37;;;21.03;;
4001;SDS011;2015;48.670;9.060;2023-02-08T18:25:44;26.90;;;18.47;;